Time;durP1;ratioP1;P1;durP2;ratioP2;P2;SDS_P1;SDS_P2;PMS_P1;PMS_P2;Temp;Humidity;BMP_temperature;BMP_pressure;BME280_temperature;BME280_humidity;BME280_pressure;Samples;Min_cycle;Max_cycle;Signal;HPM_P1;HPM_P2
2022/08/18 00:00:30;;;;;;;;;;;;;;;21.18;67.79;100245.03;5121817;27;20284;-73
2022/08/18 00:03:34;;;;;;;;;;;;;;;21.21;67.59;100257.19;5122603;27;19923;-73
2022/08/18 00:06:37;;;;;;;;;;;;;;;21.10;68.09;100264.44;5123642;27;20380;-73
2022/08/18 00:09:41;;;;;;;;;;;;;;;21.10;67.68;100258.28;5119031;27;19970;-72
2022/08/18 00:12:44;;;;;;;;;;;;;;;21.02;68.07;100261.69;5120221;27;19922;-73
2022/08/18 00:15:48;;;;;;;;;;;;;;;21.14;68.12;100260.47;5120858;27;19954;-73
2022/08/18 00:18:51;;;;;;;;;;;;;;;21.15;68.33;100261.28;5121741;27;20445;-73
2022/08/18 00:21:55;;;;;;;;;;;;;;;20.99;68.94;100256.69;5122570;27;19922;-73
2022/08/18 00:24:58;;;;;;;;;;;;;;;20.94;69.06;100253.66;5123552;27;19919;-73
2022/08/18 00:28:03;;;;;;;;;;;;;;;20.79;69.39;100253.38;5118975;27;19919;-73
2022/08/18 00:31:06;;;;;;;;;;;;;;;20.76;68.95;100258.16;5120124;27;19923;-73
2022/08/18 00:34:09;;;;;;;;;;;;;;;20.87;68.20;100252.63;5120805;27;19919;-73
2022/08/18 00:37:12;;;;;;;;;;;;;;;20.75;68.38;100249.34;5122086;27;19918;-72
2022/08/18 00:40:17;;;;;;;;;;;;;;;20.69;68.87;100243.81;5122462;27;19927;-73
2022/08/18 00:43:41;;;;;;;;;;;;;;;20.64;69.14;100237.16;5118501;27;19937;-72
2022/08/18 00:46:45;;;;;;;;;;;;;;;20.58;68.75;100239.56;5119348;27;19927;-72
2022/08/18 00:49:50;;;;;;;;;;;;;;;20.48;68.75;100255.53;5120184;28;20381;-73
2022/08/18 00:52:59;;;;;;;;;;;;;;;20.55;68.70;100251.34;5121716;27;19919;-73
2022/08/18 00:56:05;;;;;;;;;;;;;;;20.47;69.71;100261.00;5118937;27;20052;-73
2022/08/18 00:59:28;;;;;;;;;;;;;;;20.43;69.20;100265.78;5120106;27;20071;-73
2022/08/18 01:02:34;;;;;;;;;;;;;;;20.23;69.80;100254.47;5121226;27;20268;-73
2022/08/18 01:05:42;;;;;;;;;;;;;;;20.16;70.61;100264.81;5122517;28;19922;-72
2022/08/18 01:08:45;;;;;;;;;;;;;;;20.18;70.17;100262.84;5119245;28;20014;-73
2022/08/18 01:11:50;;;;;;;;;;;;;;;20.23;69.51;100269.53;5105723;28;20287;-73
2022/08/18 01:14:53;;;;;;;;;;;;;;;20.26;69.55;100272.75;5121489;27;19964;-72
2022/08/18 01:28:10;;;;;;;;;;;;;;;20.38;69.14;100268.03;5124658;27;19922;-74
2022/08/18 01:31:28;;;;;;;;;;;;;;;20.19;70.12;100267.16;5125391;27;19918;-73
2022/08/18 01:34:32;;;;;;;;;;;;;;;20.27;70.07;100270.94;5124898;27;19980;-72
2022/08/18 01:37:36;;;;;;;;;;;;;;;20.26;70.09;100269.22;5125761;27;19930;-72
2022/08/18 01:40:39;;;;;;;;;;;;;;;20.12;70.42;100257.31;5126584;27;20003;-72
2022/08/18 01:43:42;;;;;;;;;;;;;;;20.14;70.38;100266.81;5121947;27;19962;-72
2022/08/18 01:46:44;;;;;;;;;;;;;;;20.16;70.39;100264.81;5122438;27;19926;-72
2022/08/18 01:49:47;;;;;;;;;;;;;;;20.27;69.96;100276.22;5123359;27;19944;-72
2022/08/18 01:52:52;;;;;;;;;;;;;;;20.13;70.56;100270.44;5124234;27;19972;-72
2022/08/18 01:55:55;;;;;;;;;;;;;;;20.02;70.94;100267.97;5112432;27;19973;-72
2022/08/18 01:58:58;;;;;;;;;;;;;;;20.06;70.78;100272.00;5126168;27;19919;-73
2022/08/18 02:02:02;;;;;;;;;;;;;;;20.01;70.51;100271.63;5121430;27;19989;-73
2022/08/18 02:05:07;;;;;;;;;;;;;;;20.04;70.42;100262.50;5109456;27;19997;-72
2022/08/18 02:08:14;;;;;;;;;;;;;;;19.94;70.62;100267.84;5123894;27;19964;-73
2022/08/18 02:11:18;;;;;;;;;;;;;;;20.12;69.78;100260.78;5125370;27;19918;-72
2022/08/18 02:14:22;;;;;;;;;;;;;;;19.81;71.33;100267.38;5121126;27;19922;-72
2022/08/18 02:17:26;;;;;;;;;;;;;;;19.63;72.27;100261.97;5136142;27;19919;-72
2022/08/18 02:20:29;;;;;;;;;;;;;;;19.69;71.92;100256.13;5136377;27;20311;-72
2022/08/18 02:23:32;;;;;;;;;;;;;;;19.74;71.76;100260.00;5135943;27;19917;-73
2022/08/18 02:26:36;;;;;;;;;;;;;;;19.85;71.64;100258.16;5135826;27;19922;-73
2022/08/18 02:29:39;;;;;;;;;;;;;;;19.74;71.80;100265.28;5136092;27;19918;-72
2022/08/18 02:32:43;;;;;;;;;;;;;;;19.88;71.53;100265.81;5135822;27;19917;-72
2022/08/18 02:35:52;;;;;;;;;;;;;;;19.77;71.81;100268.66;5135700;27;19923;-72
2022/08/18 02:38:55;;;;;;;;;;;;;;;19.79;71.86;100266.69;5135417;27;20460;-72
2022/08/18 02:41:58;;;;;;;;;;;;;;;19.85;71.50;100274.91;5135293;27;20399;-72
2022/08/18 02:45:01;;;;;;;;;;;;;;;19.87;71.24;100278.22;5135459;27;19987;-72
2022/08/18 02:48:05;;;;;;;;;;;;;;;19.85;71.36;100279.38;5135783;27;20049;-72
2022/08/18 02:51:11;;;;;;;;;;;;;;;19.83;71.56;100279.50;5135758;27;19918;-72
2022/08/18 02:54:15;;;;;;;;;;;;;;;19.93;71.13;100276.81;5135322;27;19926;-72
2022/08/18 02:57:21;;;;;;;;;;;;;;;19.89;71.22;100288.72;5122961;27;19956;-73
2022/08/18 03:00:24;;;;;;;;;;;;;;;19.94;70.96;100284.66;5135673;27;20018;-71
2022/08/18 03:03:27;;;;;;;;;;;;;;;20.04;70.55;100279.28;5135451;27;19922;-72
2022/08/18 03:06:31;;;;;;;;;;;;;;;19.83;71.61;100278.69;5122779;27;19938;-71
2022/08/18 03:09:36;;;;;;;;;;;;;;;19.72;72.26;100277.88;5135280;27;19971;-72
2022/08/18 03:12:42;;;;;;;;;;;;;;;19.88;71.63;100281.75;5135720;27;19918;-72
2022/08/18 03:15:46;;;;;;;;;;;;;;;19.77;72.04;100272.13;5135719;27;20340;-72
2022/08/18 03:18:51;;;;;;;;;;;;;;;19.79;71.92;100272.84;5135071;27;20338;-71
2022/08/18 03:21:56;;;;;;;;;;;;;;;19.92;71.50;100273.34;5135074;27;19918;-71
2022/08/18 03:24:59;;;;;;;;;;;;;;;19.97;71.18;100280.84;5135275;27;19956;-72
2022/08/18 03:28:02;;;;;;;;;;;;;;;19.84;71.72;100277.69;5135112;27;19936;-72
2022/08/18 03:31:06;;;;;;;;;;;;;;;19.91;71.52;100282.28;5135108;27;20002;-72
2022/08/18 03:34:10;;;;;;;;;;;;;;;19.93;71.59;100274.16;5134864;27;19917;-72
2022/08/18 03:37:16;;;;;;;;;;;;;;;19.89;71.58;100280.75;5134744;27;20388;-72
2022/08/18 03:40:19;;;;;;;;;;;;;;;19.86;71.85;100286.34;5134817;27;19963;-71
2022/08/18 03:43:23;;;;;;;;;;;;;;;19.92;71.86;100283.13;5134785;27;19918;-72
2022/08/18 03:46:27;;;;;;;;;;;;;;;19.97;71.66;100279.03;5134558;27;19972;-72
2022/08/18 03:49:32;;;;;;;;;;;;;;;19.94;71.83;100270.50;5134882;27;20010;-72
2022/08/18 03:52:37;;;;;;;;;;;;;;;19.85;72.34;100269.59;5133905;27;19964;-72
2022/08/18 03:55:40;;;;;;;;;;;;;;;19.87;72.43;100274.75;5134473;27;20036;-72
2022/08/18 03:58:45;;;;;;;;;;;;;;;19.87;72.42;100264.97;5134491;27;19969;-72
2022/08/18 04:01:49;;;;;;;;;;;;;;;19.83;72.30;100268.06;5134437;27;19964;-72
2022/08/18 04:04:52;;;;;;;;;;;;;;;19.89;71.77;100257.69;5134343;27;19918;-71
2022/08/18 04:07:56;;;;;;;;;;;;;;;19.89;71.98;100262.19;5134299;27;20292;-71
2022/08/18 04:10:58;;;;;;;;;;;;;;;19.92;72.00;100261.88;5134274;27;20387;-71
2022/08/18 04:14:04;;;;;;;;;;;;;;;19.78;72.51;100262.34;5134214;27;19969;-73
2022/08/18 04:17:08;;;;;;;;;;;;;;;19.67;73.10;100258.06;5134312;27;19937;-73
2022/08/18 04:20:11;;;;;;;;;;;;;;;19.64;73.25;100259.19;5133819;27;19964;-71
2022/08/18 04:23:15;;;;;;;;;;;;;;;19.63;73.39;100268.09;5133897;27;19967;-72
2022/08/18 04:26:18;;;;;;;;;;;;;;;19.46;74.35;100271.50;5133692;27;19999;-71
2022/08/18 04:29:22;;;;;;;;;;;;;;;19.55;74.13;100251.25;5133946;27;19922;-73
2022/08/18 04:32:25;;;;;;;;;;;;;;;19.48;74.34;100251.81;5093762;27;19976;-73
2022/08/18 04:35:29;;;;;;;;;;;;;;;19.50;74.17;100247.22;5088594;28;19957;-72
2022/08/18 04:38:32;;;;;;;;;;;;;;;19.63;73.59;100243.41;5089678;28;19919;-72
2022/08/18 04:41:37;;;;;;;;;;;;;;;19.63;73.62;100257.50;5093648;28;19958;-72
2022/08/18 04:44:40;;;;;;;;;;;;;;;19.44;74.63;100258.41;5110127;28;19921;-73
2022/08/18 04:47:43;;;;;;;;;;;;;;;19.47;74.65;100262.59;5068530;28;19989;-72
2022/08/18 04:50:46;;;;;;;;;;;;;;;19.37;74.74;100267.06;5067975;28;19946;-73
2022/08/18 04:53:50;;;;;;;;;;;;;;;19.48;74.56;100272.19;5069095;28;20362;-73
2022/08/18 04:56:53;;;;;;;;;;;;;;;19.39;74.65;100271.22;5068696;28;19919;-73
2022/08/18 04:59:57;;;;;;;;;;;;;;;19.20;75.38;100280.06;5069490;28;20396;-73
2022/08/18 05:03:01;;;;;;;;;;;;;;;19.30;75.24;100282.69;5069051;28;19919;-73
2022/08/18 05:06:05;;;;;;;;;;;;;;;19.15;76.02;100290.25;5068237;28;19962;-73
2022/08/18 05:09:09;;;;;;;;;;;;;;;19.01;76.16;100278.25;5068683;28;20451;-72
2022/08/18 05:12:14;;;;;;;;;;;;;;;19.12;75.61;100284.41;5068598;28;19916;-73
2022/08/18 05:15:17;;;;;;;;;;;;;;;18.94;76.30;100286.94;5068789;28;19966;-73
2022/08/18 05:18:23;;;;;;;;;;;;;;;19.10;75.97;100291.66;5068804;28;20023;-73
2022/08/18 05:21:26;;;;;;;;;;;;;;;19.47;74.45;100289.94;5069437;28;20002;-73
2022/08/18 05:24:30;;;;;;;;;;;;;;;19.70;73.28;100290.44;5068500;28;19919;-73
2022/08/18 05:27:37;;;;;;;;;;;;;;;19.76;72.96;100282.91;5068320;28;20062;-72
2022/08/18 05:30:41;;;;;;;;;;;;;;;19.50;73.68;100296.78;5068341;28;19965;-72
2022/08/18 05:33:45;;;;;;;;;;;;;;;19.32;74.59;100293.16;5066910;28;19974;-75
2022/08/18 05:36:51;;;;;;;;;;;;;;;19.12;75.81;100300.31;5067082;28;19919;-73
2022/08/18 05:40:01;;;;;;;;;;;;;;;18.97;76.99;100302.53;5066724;28;19966;-72
2022/08/18 05:43:05;;;;;;;;;;;;;;;19.25;75.68;100306.16;5067408;28;19919;-72
2022/08/18 05:46:09;;;;;;;;;;;;;;;19.42;75.17;100301.94;5089979;28;19972;-74
2022/08/18 05:49:14;;;;;;;;;;;;;;;19.73;73.81;100308.72;5107980;28;19919;-72
2022/08/18 05:52:17;;;;;;;;;;;;;;;19.89;73.39;100316.06;5107769;28;19919;-72
2022/08/18 05:58:58;;;;;;;;;;;;;;;20.00;73.30;100323.00;5086866;28;20422;-71
2022/08/18 06:02:26;;;;;;;;;;;;;;;19.98;73.66;100327.66;5089044;28;19934;-72
2022/08/18 06:05:31;;;;;;;;;;;;;;;19.98;73.38;100331.13;5091117;28;20039;-74
2022/08/18 06:08:44;;;;;;;;;;;;;;;19.97;73.26;100325.94;5103878;28;19962;-73
2022/08/18 06:11:48;;;;;;;;;;;;;;;20.03;72.98;100340.47;5111723;28;19915;-73
2022/08/18 06:14:52;;;;;;;;;;;;;;;19.98;73.74;100338.25;5111024;28;20068;-76
2022/08/18 06:18:05;;;;;;;;;;;;;;;20.08;73.95;100335.56;5110188;28;19918;-73
2022/08/18 06:21:15;;;;;;;;;;;;;;;20.19;72.76;100338.84;5110749;28;19918;-77
2022/08/18 06:24:29;;;;;;;;;;;;;;;20.14;73.46;100338.47;5110942;28;20000;-82
2022/08/18 06:27:32;;;;;;;;;;;;;;;20.36;75.27;100341.72;5111108;28;19926;-82
2022/08/18 06:30:41;;;;;;;;;;;;;;;20.07;74.10;100333.88;5110282;28;20334;-77
2022/08/18 06:33:51;;;;;;;;;;;;;;;20.18;73.62;100336.34;5110935;28;19956;-77
2022/08/18 06:36:58;;;;;;;;;;;;;;;20.27;72.06;100334.66;5100685;28;19985;-82
2022/08/18 06:40:01;;;;;;;;;;;;;;;20.46;71.40;100339.03;5111108;28;20496;-83
2022/08/18 06:43:08;;;;;;;;;;;;;;;20.53;71.04;100334.81;5110721;28;19919;-83
2022/08/18 06:46:16;;;;;;;;;;;;;;;20.67;70.10;100332.47;5110242;28;19925;-74
2022/08/18 06:49:45;;;;;;;;;;;;;;;20.75;69.61;100329.06;5093494;28;19919;-72
2022/08/18 06:52:51;;;;;;;;;;;;;;;20.75;69.79;100326.41;5110115;28;20327;-72
2022/08/18 06:55:55;;;;;;;;;;;;;;;20.81;70.46;100327.63;5109716;28;19919;-72
2022/08/18 06:59:17;;;;;;;;;;;;;;;20.79;69.78;100321.63;5110943;28;19919;-72
2022/08/18 07:02:29;;;;;;;;;;;;;;;20.84;69.82;100322.84;5109364;28;20010;-72
2022/08/18 07:05:33;;;;;;;;;;;;;;;20.71;70.34;100327.72;5108472;28;19972;-72
2022/08/18 07:08:40;;;;;;;;;;;;;;;20.61;70.98;100325.13;5109357;28;19919;-72
2022/08/18 07:12:06;;;;;;;;;;;;;;;20.70;70.59;100325.19;5110419;28;19968;-72
2022/08/18 07:15:11;;;;;;;;;;;;;;;20.84;70.12;100324.69;5109627;28;19922;-75
2022/08/18 07:18:21;;;;;;;;;;;;;;;20.49;71.19;100328.94;5109837;28;20362;-75
2022/08/18 07:21:27;;;;;;;;;;;;;;;20.30;71.73;100335.19;5088975;28;19960;-75
2022/08/18 07:24:32;;;;;;;;;;;;;;;20.26;72.17;100336.47;5090263;28;19950;-76
2022/08/18 07:27:35;;;;;;;;;;;;;;;20.34;71.96;100336.56;5090775;28;19923;-76
2022/08/18 07:30:38;;;;;;;;;;;;;;;20.12;72.59;100332.47;5106899;28;20387;-76
2022/08/18 07:33:43;;;;;;;;;;;;;;;20.08;73.05;100343.53;5110734;28;20008;-76
2022/08/18 07:36:57;;;;;;;;;;;;;;;20.24;72.27;100350.88;5110288;28;20336;-76
2022/08/18 07:40:13;;;;;;;;;;;;;;;20.30;72.41;100356.44;5111361;28;19923;-79
2022/08/18 07:43:18;;;;;;;;;;;;;;;20.34;72.29;100357.78;5109345;28;19981;-81
2022/08/18 07:46:35;;;;;;;;;;;;;;;20.33;72.09;100357.97;5110452;28;19923;-80
2022/08/18 07:49:45;;;;;;;;;;;;;;;20.59;71.53;100361.59;5110888;28;19973;-81
2022/08/18 07:53:01;;;;;;;;;;;;;;;20.62;71.76;100361.31;5112074;28;19917;-80
2022/08/18 07:56:17;;;;;;;;;;;;;;;20.44;71.79;100366.53;5112636;28;19966;-80
2022/08/18 07:59:33;;;;;;;;;;;;;;;20.60;71.53;100363.28;5112642;28;20015;-80
2022/08/18 08:02:45;;;;;;;;;;;;;;;20.62;71.61;100357.81;5111396;28;19930;-80
2022/08/18 08:06:03;;;;;;;;;;;;;;;20.80;70.92;100361.31;5111191;28;19985;-80
2022/08/18 08:09:29;;;;;;;;;;;;;;;21.01;70.84;100358.38;5112697;28;20017;-80
2022/08/18 08:12:46;;;;;;;;;;;;;;;21.17;70.54;100359.53;5111392;28;19966;-80
2022/08/18 08:16:02;;;;;;;;;;;;;;;21.21;70.68;100355.56;5109885;28;19964;-80
2022/08/18 08:19:32;;;;;;;;;;;;;;;21.41;69.03;100364.22;5110567;28;19961;-81
2022/08/18 08:22:52;;;;;;;;;;;;;;;21.56;68.90;100354.72;5110349;28;20384;-81
2022/08/18 08:26:01;;;;;;;;;;;;;;;21.57;68.32;100367.88;5108785;28;19998;-82
2022/08/18 08:29:10;;;;;;;;;;;;;;;21.46;68.85;100370.75;5110536;28;20432;-81
2022/08/18 08:32:18;;;;;;;;;;;;;;;21.09;70.27;100374.44;5108273;28;20380;-81
2022/08/18 08:35:40;;;;;;;;;;;;;;;20.90;70.71;100378.06;5109178;28;19923;-81
2022/08/18 08:38:45;;;;;;;;;;;;;;;20.78;71.98;100383.75;5109678;28;20160;-83
2022/08/18 08:41:59;;;;;;;;;;;;;;;20.99;71.36;100373.63;5109265;28;19918;-81
2022/08/18 08:45:17;;;;;;;;;;;;;;;21.27;69.50;100368.25;5108462;28;20488;-77
2022/08/18 08:48:28;;;;;;;;;;;;;;;21.50;70.20;100356.16;5109883;28;19922;-82
2022/08/18 08:51:41;;;;;;;;;;;;;;;21.72;68.93;100364.63;5108991;28;19959;-84
2022/08/18 08:55:00;;;;;;;;;;;;;;;21.64;69.36;100369.91;5107919;28;19965;-80
2022/08/18 08:58:15;;;;;;;;;;;;;;;21.51;69.38;100362.34;5108671;28;19970;-78
2022/08/18 09:01:38;;;;;;;;;;;;;;;21.32;69.82;100363.31;5077107;28;19922;-78
2022/08/18 09:05:10;;;;;;;;;;;;;;;21.44;69.91;100351.47;5069546;28;19919;-79
2022/08/18 09:08:21;;;;;;;;;;;;;;;21.74;69.31;100358.16;5088744;28;19969;-81
2022/08/18 09:11:40;;;;;;;;;;;;;;;21.50;69.65;100353.50;5088653;28;19918;-82
2022/08/18 09:14:53;;;;;;;;;;;;;;;21.74;68.94;100362.66;5102739;28;19958;-82
2022/08/18 09:18:00;;;;;;;;;;;;;;;21.96;68.46;100351.47;5109388;28;20420;-81
2022/08/18 09:21:04;;;;;;;;;;;;;;;21.51;67.91;100351.69;5109719;28;19919;-81
2022/08/18 09:24:30;;;;;;;;;;;;;;;21.77;67.79;100370.34;5109246;28;19964;-81
2022/08/18 09:27:42;;;;;;;;;;;;;;;22.05;66.82;100371.84;5107615;28;20008;-83
2022/08/18 09:30:50;;;;;;;;;;;;;;;21.87;66.29;100373.72;5108854;28;19965;-83
2022/08/18 09:34:12;;;;;;;;;;;;;;;22.02;66.37;100366.81;5108447;28;19919;-81
2022/08/18 09:37:21;;;;;;;;;;;;;;;21.78;67.26;100372.81;5110088;28;19918;-76
2022/08/18 09:44:16;;;;;;;;;;;;;;;21.79;67.01;100377.19;5112176;28;19918;-83
2022/08/18 09:47:19;;;;;;;;;;;;;;;21.76;66.96;100371.31;5051991;28;19923;-82
2022/08/18 09:50:47;;;;;;;;;;;;;;;21.71;67.63;100384.25;5090791;28;19970;-85
2022/08/18 09:53:53;;;;;;;;;;;;;;;21.49;67.96;100382.94;5090703;28;19919;-78
2022/08/18 09:57:07;;;;;;;;;;;;;;;21.78;67.17;100385.31;5095707;28;19922;-75
2022/08/18 10:00:12;;;;;;;;;;;;;;;21.88;66.53;100380.69;5075563;28;20046;-75
2022/08/18 10:03:23;;;;;;;;;;;;;;;21.89;66.16;100382.41;5071456;28;20015;-79
2022/08/18 10:06:26;;;;;;;;;;;;;;;21.98;65.75;100362.78;5070661;28;19926;-76
2022/08/18 10:09:29;;;;;;;;;;;;;;;21.98;66.23;100362.78;5070760;28;19923;-76
2022/08/18 10:12:52;;;;;;;;;;;;;;;22.02;65.28;100364.16;5090671;28;20277;-79
2022/08/18 10:16:14;;;;;;;;;;;;;;;21.81;66.17;100363.69;5090654;28;20380;-80
2022/08/18 10:19:17;;;;;;;;;;;;;;;21.81;66.27;100361.03;5091026;28;19965;-80
2022/08/18 10:22:38;;;;;;;;;;;;;;;21.68;66.63;100352.63;5090367;28;19927;-79
2022/08/18 10:25:46;;;;;;;;;;;;;;;21.74;66.54;100358.16;5092391;28;19969;-80
2022/08/18 10:28:55;;;;;;;;;;;;;;;22.03;65.48;100352.50;5070994;28;20045;-77
2022/08/18 10:31:59;;;;;;;;;;;;;;;22.13;65.01;100354.22;5071301;28;19915;-80
2022/08/18 10:35:04;;;;;;;;;;;;;;;22.40;64.57;100351.38;5070794;28;20188;-80
2022/08/18 10:38:17;;;;;;;;;;;;;;;22.11;64.72;100348.22;5070721;28;20393;-79
2022/08/18 10:41:25;;;;;;;;;;;;;;;22.24;64.11;100348.66;5070920;28;19995;-80
2022/08/18 10:44:30;;;;;;;;;;;;;;;22.04;64.51;100348.00;5071848;28;20003;-80
2022/08/18 10:47:34;;;;;;;;;;;;;;;22.27;64.32;100348.31;5088321;28;19971;-82
2022/08/18 10:50:45;;;;;;;;;;;;;;;22.60;63.27;100343.94;5091387;28;19948;-81
2022/08/18 10:53:48;;;;;;;;;;;;;;;22.64;62.62;100345.28;5083400;28;19919;-78
2022/08/18 10:56:55;;;;;;;;;;;;;;;22.57;62.82;100348.78;5111572;28;19989;-78
2022/08/18 11:00:09;;;;;;;;;;;;;;;22.54;62.96;100344.59;5111373;28;19922;-79
2022/08/18 11:03:26;;;;;;;;;;;;;;;22.56;63.16;100355.06;5099383;28;19955;-81
2022/08/18 11:06:36;;;;;;;;;;;;;;;22.54;62.83;100349.09;5111646;28;20011;-80
2022/08/18 11:09:40;;;;;;;;;;;;;;;22.38;62.97;100344.53;5110811;28;19937;-81
2022/08/18 11:13:02;;;;;;;;;;;;;;;22.41;63.43;100334.41;5111545;28;19927;-79
2022/08/18 11:16:24;;;;;;;;;;;;;;;22.60;62.56;100327.13;5112042;28;20293;-79
2022/08/18 11:19:27;;;;;;;;;;;;;;;22.60;62.27;100337.78;5111137;28;19919;-80
2022/08/18 11:22:32;;;;;;;;;;;;;;;22.50;63.22;100328.09;5097458;28;19918;-80
2022/08/18 11:25:40;;;;;;;;;;;;;;;22.35;64.32;100311.06;5110227;28;20384;-80
2022/08/18 11:28:45;;;;;;;;;;;;;;;22.48;63.84;100311.44;5110332;28;19926;-79
2022/08/18 11:31:52;;;;;;;;;;;;;;;21.87;64.94;100314.34;5110361;28;19960;-79
2022/08/18 11:34:58;;;;;;;;;;;;;;;22.11;64.96;100324.25;5097829;28;20291;-80
2022/08/18 11:38:03;;;;;;;;;;;;;;;21.83;65.00;100319.13;5109975;28;19968;-80
2022/08/18 11:41:17;;;;;;;;;;;;;;;22.11;64.29;100332.22;5109864;28;20381;-79
2022/08/18 11:44:27;;;;;;;;;;;;;;;21.88;65.19;100346.09;5110865;28;19965;-78
2022/08/18 11:47:31;;;;;;;;;;;;;;;21.95;64.86;100360.47;5088865;28;19926;-78
2022/08/18 11:50:43;;;;;;;;;;;;;;;21.96;64.58;100367.44;5088507;28;19926;-78
2022/08/18 11:53:48;;;;;;;;;;;;;;;21.37;66.80;100366.38;5089877;28;19922;-77
2022/08/18 11:56:51;;;;;;;;;;;;;;;21.38;66.88;100335.28;5089436;28;19926;-78
2022/08/18 11:59:55;;;;;;;;;;;;;;;21.79;65.49;100313.31;5088426;28;19923;-77
2022/08/18 12:03:06;;;;;;;;;;;;;;;22.12;64.44;100275.34;5088656;28;19965;-78
2022/08/18 12:06:14;;;;;;;;;;;;;;;22.37;63.67;100265.63;5087756;28;20385;-78
2022/08/18 12:09:19;;;;;;;;;;;;;;;22.20;63.69;100284.22;5088675;28;20002;-77
2022/08/18 12:12:26;;;;;;;;;;;;;;;22.17;63.92;100305.00;5088280;28;19919;-77
2022/08/18 12:15:33;;;;;;;;;;;;;;;22.03;64.00;100315.25;5088460;28;20384;-78
2022/08/18 12:18:36;;;;;;;;;;;;;;;21.50;65.85;100308.28;5088120;28;20026;-78
2022/08/18 12:22:06;;;;;;;;;;;;;;;21.75;65.51;100311.94;5068138;28;19935;-77
2022/08/18 12:25:11;;;;;;;;;;;;;;;21.83;65.20;100297.84;5068497;28;19923;-77
2022/08/18 12:28:15;;;;;;;;;;;;;;;22.08;64.21;100288.16;5068206;28;20065;-76
2022/08/18 12:31:17;;;;;;;;;;;;;;;22.15;63.80;100293.66;5067610;28;19923;-77
2022/08/18 12:34:23;;;;;;;;;;;;;;;22.71;61.91;100298.31;5076465;28;19954;-76
2022/08/18 12:37:27;;;;;;;;;;;;;;;23.14;60.96;100282.22;5088272;28;20297;-77
2022/08/18 12:40:31;;;;;;;;;;;;;;;23.46;59.65;100283.19;5089130;28;20015;-77
2022/08/18 12:43:34;;;;;;;;;;;;;;;22.92;60.96;100284.53;5088762;28;20392;-78
2022/08/18 12:46:38;;;;;;;;;;;;;;;22.94;60.68;100284.38;5098708;28;19995;-79
2022/08/18 12:49:41;;;;;;;;;;;;;;;23.16;59.78;100274.88;5107478;28;19919;-78
2022/08/18 12:52:55;;;;;;;;;;;;;;;23.68;58.41;100263.78;5107886;28;20004;-79
2022/08/18 12:55:58;;;;;;;;;;;;;;;23.76;57.73;100261.09;5108560;28;20276;-79
2022/08/18 12:59:03;;;;;;;;;;;;;;;23.99;57.06;100266.50;5108630;28;19918;-80
2022/08/18 13:02:08;;;;;;;;;;;;;;;23.53;58.04;100257.50;5107765;28;20320;-79
2022/08/18 13:05:11;;;;;;;;;;;;;;;23.58;57.91;100255.97;5109343;28;19985;-78
2022/08/18 13:08:17;;;;;;;;;;;;;;;24.11;56.45;100251.78;5109161;28;20354;-79
2022/08/18 13:11:21;;;;;;;;;;;;;;;24.80;54.38;100246.53;5095546;28;20388;-81
2022/08/18 13:14:24;;;;;;;;;;;;;;;24.60;54.71;100250.66;5108457;28;19919;-80
2022/08/18 13:17:28;;;;;;;;;;;;;;;24.23;55.63;100244.22;5094933;28;20127;-81
2022/08/18 13:20:32;;;;;;;;;;;;;;;24.04;56.09;100241.97;5108174;28;19934;-78
2022/08/18 13:23:35;;;;;;;;;;;;;;;24.05;55.73;100259.66;5095228;28;19918;-75
2022/08/18 13:26:41;;;;;;;;;;;;;;;24.11;55.38;100256.28;5108484;28;19922;-80
2022/08/18 13:29:45;;;;;;;;;;;;;;;24.08;55.64;100260.13;5109098;28;19962;-78
2022/08/18 13:32:48;;;;;;;;;;;;;;;24.08;55.68;100254.78;5107953;28;19918;-79
2022/08/18 13:35:52;;;;;;;;;;;;;;;24.27;55.82;100258.88;5108152;28;19957;-80
2022/08/18 13:38:55;;;;;;;;;;;;;;;24.24;55.46;100269.91;5107570;28;19918;-80
2022/08/18 13:41:59;;;;;;;;;;;;;;;24.12;55.73;100265.97;5107381;28;19933;-82
2022/08/18 13:45:04;;;;;;;;;;;;;;;23.89;55.86;100279.25;5107271;28;20301;-84
2022/08/18 13:48:10;;;;;;;;;;;;;;;23.98;55.69;100264.03;5106394;28;19969;-80
2022/08/18 13:51:18;;;;;;;;;;;;;;;23.36;57.77;100265.53;5108716;28;19918;-75
2022/08/18 13:54:22;;;;;;;;;;;;;;;24.75;54.64;100251.56;5108165;28;20376;-79
2022/08/18 13:57:26;;;;;;;;;;;;;;;27.52;46.56;100235.53;5108722;28;19919;-86
2022/08/18 14:00:32;;;;;;;;;;;;;;;28.06;44.15;100236.66;5107274;28;19940;-85
2022/08/18 14:03:35;;;;;;;;;;;;;;;25.95;49.42;100235.50;5107726;28;19954;-83
2022/08/18 14:06:38;;;;;;;;;;;;;;;27.11;47.11;100230.91;5106871;28;19927;-83
2022/08/18 14:09:43;;;;;;;;;;;;;;;27.25;46.59;100234.56;5108369;28;19918;-83
2022/08/18 14:12:52;;;;;;;;;;;;;;;25.81;49.65;100240.88;5108490;28;20426;-87
2022/08/18 14:15:57;;;;;;;;;;;;;;;25.50;50.10;100236.53;5107967;28;19918;-86
2022/08/18 14:26:57;;;;;;;;;;;;;;;28.15;43.70;100205.03;5112085;28;19930;-89
2022/08/18 14:30:06;;;;;;;;;;;;;;;27.62;44.32;100205.63;5111490;28;20351;-84
2022/08/18 14:33:09;;;;;;;;;;;;;;;25.74;48.65;100209.44;5111862;28;19964;-86
2022/08/18 14:36:13;;;;;;;;;;;;;;;24.46;51.76;100214.84;5111864;28;20346;-83
2022/08/18 14:39:17;;;;;;;;;;;;;;;24.90;51.80;100210.69;5110978;28;19923;-86
2022/08/18 14:42:21;;;;;;;;;;;;;;;25.90;48.75;100203.09;5110194;28;20010;-84
2022/08/18 14:45:24;;;;;;;;;;;;;;;26.32;48.39;100208.69;5097571;28;20006;-82
2022/08/18 14:48:28;;;;;;;;;;;;;;;26.52;48.33;100201.72;5075648;28;19923;-81
2022/08/18 14:51:32;;;;;;;;;;;;;;;26.13;48.86;100219.03;5111454;28;19922;-85
2022/08/18 14:54:36;;;;;;;;;;;;;;;25.53;49.53;100214.75;5111686;28;19922;-82
2022/08/18 14:57:40;;;;;;;;;;;;;;;25.71;49.02;100215.19;5109761;28;20289;-82
2022/08/18 15:00:43;;;;;;;;;;;;;;;25.20;49.77;100211.59;5110830;28;19918;-82
2022/08/18 15:03:55;;;;;;;;;;;;;;;25.48;49.75;100209.13;5110465;28;19923;-83
2022/08/18 15:06:58;;;;;;;;;;;;;;;25.92;47.79;100208.28;5110106;28;19919;-83
2022/08/18 15:10:01;;;;;;;;;;;;;;;26.04;47.40;100208.59;5110514;28;19922;-84
2022/08/18 15:13:07;;;;;;;;;;;;;;;26.14;47.21;100198.44;5111018;28;19919;-88
2022/08/18 15:16:14;;;;;;;;;;;;;;;25.95;47.86;100208.72;5109688;28;19918;-86
2022/08/18 15:19:17;;;;;;;;;;;;;;;25.91;48.09;100196.72;5111457;28;19919;-83
2022/08/18 15:25:45;;;;;;;;;;;;;;;26.33;46.87;100197.81;5110169;28;20471;-83
2022/08/18 15:28:48;;;;;;;;;;;;;;;26.61;46.37;100205.94;5110732;28;20001;-82
2022/08/18 15:31:52;;;;;;;;;;;;;;;26.43;46.56;100203.66;5110947;28;19922;-85
2022/08/18 15:34:56;;;;;;;;;;;;;;;26.46;46.17;100204.31;5109722;28;19938;-79
2022/08/18 15:38:00;;;;;;;;;;;;;;;26.08;47.24;100189.28;5110016;28;20319;-87
2022/08/18 15:41:05;;;;;;;;;;;;;;;26.09;47.33;100190.94;5109388;28;19975;-82
2022/08/18 15:44:08;;;;;;;;;;;;;;;25.64;47.63;100192.84;5110041;28;19981;-84
2022/08/18 15:47:13;;;;;;;;;;;;;;;25.40;48.43;100193.97;5110154;28;19922;-77
2022/08/18 15:50:17;;;;;;;;;;;;;;;25.03;48.99;100189.50;5110679;28;20379;-80
2022/08/18 15:53:23;;;;;;;;;;;;;;;25.12;49.78;100193.78;5111022;28;20375;-79
2022/08/18 15:56:27;;;;;;;;;;;;;;;25.04;50.31;100196.50;5109601;28;20379;-80
2022/08/18 15:59:30;;;;;;;;;;;;;;;25.31;49.29;100197.75;5109812;28;19991;-88
2022/08/18 16:02:47;;;;;;;;;;;;;;;25.08;49.45;100199.63;5110252;28;20122;-88
2022/08/18 16:05:52;;;;;;;;;;;;;;;25.39;48.95;100197.66;5109649;28;19922;-87
2022/08/18 16:08:55;;;;;;;;;;;;;;;25.21;48.84;100187.34;5108409;28;19918;-86
2022/08/18 16:12:01;;;;;;;;;;;;;;;24.93;49.29;100194.28;5110181;28;19918;-86
2022/08/18 16:15:06;;;;;;;;;;;;;;;25.10;49.38;100192.25;5110304;28;19918;-86
2022/08/18 16:18:09;;;;;;;;;;;;;;;24.89;49.39;100198.31;5108859;28;19950;-86
2022/08/18 16:21:15;;;;;;;;;;;;;;;24.91;50.47;100193.63;5110036;28;20297;-86
2022/08/18 16:24:22;;;;;;;;;;;;;;;25.03;49.61;100194.84;5109644;28;20326;-86
2022/08/18 16:27:28;;;;;;;;;;;;;;;25.25;49.40;100193.97;5109891;28;19942;-89